RJGGRJBE

Guest
Details From RJGG - CHUBU CENTRAIR INTL
To RJBE - Kobe
Flight Number -
Tags generated
Created
Modified
Stats Distance 79 nm / 147 km
Max Altitude 8,700 ft / 2,652 m
Waypoints 3
Social Downloads 0
Likes 0
Share VATSIM

Download

Looking for another format? Having issues loading an existing format? Contact us
Advertisement - Login to hide

Notes

Basic altitude profile: - Ascent Rate: 2500ft/min - Ascent Speed: 250kts - Cruise Altitude: 220ft - Cruise Speed: 420kts - Descent Rate: 1500ft/min - Descent Speed: 250kts Options: - Use NATs: yes - Use PACOTS: yes - Use low airways: yes - Use high airways: yes

Route

RJGG ASUKA RJBE

ID Type Via Altitude Latitude Longitude Leg Dist Tot Dist Heading (true) Name
O RJGG APT - 0 ft / 0 m 34.85841˚ 136.80541˚ - 0 nm - CHUBU CENTRAIR INTL
ASUKA FIX - 8,700 ft / 2,652 m 34.76742˚ 136.03187˚ 38 nm 38 nm 262° / 262° -
O RJBE APT - 0 ft / 0 m 34.63270˚ 135.22388˚ 40 nm 79 nm 259° / 258° Kobe

Altitude Profile

Advertisement - Login to hide

RJGG

Details ICAO RJGG (NGO)
Name CHUBU CENTRAIR INTL
Region Japan
Timezone Asia/Tokyo (UTC+9.0)
Stats Elevation 15 ft / 5 m (AMSL)
Location 34.858414° 136.805408°
Runways 1
Magnetic Variation 7.581° W

METAR

RJGG 170200Z 29019KT 9999 VCSH FEW015 BKN050 06/M02 Q1019 NOSIG

Decode

TAF

TAF RJGG 162309Z 1700/1806 32020KT 9999 FEW020 SCT040 BECMG 1710/1712 33010KT

Decode

Departure Runways

ID Width Length Bearing (true) Bearing (mag) Surface Threshold Offset Overrun Length
18 197 ft / 60 m 11,511 ft / 3,509 m 168.81° 176.39° Asphalt 0 ft / 0 m 197 ft / 60 m
36 197 ft / 60 m 11,511 ft / 3,509 m 348.81° 356.39° Asphalt 0 ft / 0 m 197 ft / 60 m

RJBE

Details ICAO RJBE (UKB)
Name Kobe
Region Japan
Timezone Asia/Tokyo (UTC+9.0)
Stats Elevation 22 ft / 7 m (AMSL)
Location 34.632700° 135.223883°
Runways 1
Magnetic Variation 7.645° W

METAR

RJBE 170200Z 28018KT 9999 FEW030 05/M06 Q1021

Decode

TAF

Not found

Destination Runways

ID Width Length Bearing (true) Bearing (mag) Surface Threshold Offset Overrun Length
09 200 ft / 61 m 8,187 ft / 2,495 m 84.58° 92.23° Asphalt 0 ft / 0 m 0 ft / 0 m
27 200 ft / 61 m 8,187 ft / 2,495 m 264.60° 272.25° Asphalt 0 ft / 0 m 0 ft / 0 m

Approach Navaids

Runway Type Ident Frequency Range Bearing (true) Bearing (mag) Slope Elevation
09 Localiser IKO 109.15 MHz 18 nm / 33 km 84.59° 92.24° - 22 ft / 7 m (AMSL)
09 Glidescope IKO 109.15 MHz 10 nm / 19 km 84.59° 92.23° 3.00° 22 ft / 7 m (AMSL)
09 DME IKO 109.15 MHz 18 nm / 33 km - - - 39 ft / 12 m (AMSL)

Popular Alternatives